Time;durP1;ratioP1;P1;durP2;ratioP2;P2;SDS_P1;SDS_P2;PMS_P1;PMS_P2;Temp;Humidity;BMP_temperature;BMP_pressure;BME280_temperature;BME280_humidity;BME280_pressure;Samples;Min_cycle;Max_cycle;Signal;HPM_P1;HPM_P2
2021/07/15 00:02:05;;;;;;;5.43;3.05;;;;;;;;;;4957888;29;20038;-85
2021/07/15 00:04:32;;;;;;;6.70;3.17;;;;;;;;;;4940704;29;20035;-86
2021/07/15 00:06:58;;;;;;;8.48;3.67;;;;;;;;;;4957825;29;20405;-85
2021/07/15 00:09:24;;;;;;;7.47;3.28;;;;;;;;;;4957928;29;20027;-85
2021/07/15 00:11:50;;;;;;;5.95;3.08;;;;;;;;;;4940804;29;20046;-86
2021/07/15 00:14:18;;;;;;;6.57;3.20;;;;;;;;;;4958448;29;20376;-86
2021/07/15 00:16:44;;;;;;;7.65;3.58;;;;;;;;;;4940963;29;20031;-86
2021/07/15 00:19:12;;;;;;;6.55;3.08;;;;;;;;;;4941127;29;20033;-86
2021/07/15 00:21:38;;;;;;;8.43;3.22;;;;;;;;;;4957589;29;20031;-87
2021/07/15 00:24:04;;;;;;;8.52;3.20;;;;;;;;;;4957523;29;20027;-86
2021/07/15 00:26:30;;;;;;;5.82;3.00;;;;;;;;;;4957463;29;20103;-86
2021/07/15 00:28:56;;;;;;;7.28;3.13;;;;;;;;;;4957600;29;20031;-86
2021/07/15 00:31:22;;;;;;;8.10;3.08;;;;;;;;;;4940222;29;20039;-86
2021/07/15 00:33:48;;;;;;;6.35;3.22;;;;;;;;;;4957387;29;20024;-86
2021/07/15 00:36:17;;;;;;;6.82;3.28;;;;;;;;;;4942505;29;20034;-86
2021/07/15 00:38:43;;;;;;;9.13;3.40;;;;;;;;;;4940378;29;20020;-86
2021/07/15 00:41:09;;;;;;;7.90;3.70;;;;;;;;;;4940339;29;20042;-85
2021/07/15 00:43:35;;;;;;;8.25;3.42;;;;;;;;;;4940009;29;20098;-85
2021/07/15 00:46:01;;;;;;;7.32;3.80;;;;;;;;;;4957107;29;20082;-84
2021/07/15 00:48:27;;;;;;;6.55;3.33;;;;;;;;;;4939713;29;20027;-86
2021/07/15 00:50:59;;;;;;;7.90;3.58;;;;;;;;;;4939650;29;20182;-85
2021/07/15 00:53:26;;;;;;;7.22;3.80;;;;;;;;;;4940053;29;20027;-86
2021/07/15 00:56:00;;;;;;;8.10;4.05;;;;;;;;;;4956861;29;20499;-86
2021/07/15 00:58:26;;;;;;;6.90;3.78;;;;;;;;;;4956799;29;20020;-86
2021/07/15 01:00:57;;;;;;;7.43;3.88;;;;;;;;;;4939942;29;20543;-86
2021/07/15 01:03:29;;;;;;;8.35;4.20;;;;;;;;;;4939256;29;20033;-86
2021/07/15 01:06:00;;;;;;;8.10;3.92;;;;;;;;;;4936013;29;20090;-86
2021/07/15 01:08:28;;;;;;;8.70;3.92;;;;;;;;;;4936683;29;20036;-86
2021/07/15 01:10:56;;;;;;;7.63;3.50;;;;;;;;;;4936194;29;20043;-86
2021/07/15 01:13:22;;;;;;;6.95;3.40;;;;;;;;;;4935770;29;20020;-85
2021/07/15 01:15:55;;;;;;;8.77;3.20;;;;;;;;;;4936282;29;20146;-86
2021/07/15 01:18:27;;;;;;;5.93;3.00;;;;;;;;;;4936161;29;20114;-85
2021/07/15 01:21:05;;;;;;;6.03;3.00;;;;;;;;;;4936789;29;20122;-86
2021/07/15 01:23:50;;;;;;;8.88;3.25;;;;;;;;;;4936490;29;20059;-88
2021/07/15 01:26:26;;;;;;;;;;;;;;;;;;;;;
2021/07/15 01:29:17;;;;;;;6.50;3.08;;;;;;;;;;4937292;29;19929;-86
2021/07/15 01:31:44;;;;;;;5.55;3.05;;;;;;;;;;4935793;29;20110;-86
2021/07/15 01:34:13;;;;;;;6.03;3.00;;;;;;;;;;4937006;29;20493;-86
2021/07/15 01:36:41;;;;;;;7.88;3.50;;;;;;;;;;4939408;29;20483;-86
2021/07/15 01:39:14;;;;;;;6.47;3.28;;;;;;;;;;4936729;29;20024;-86
2021/07/15 01:41:42;;;;;;;6.57;2.85;;;;;;;;;;4935714;29;20050;-86
2021/07/15 01:44:13;;;;;;;6.13;3.00;;;;;;;;;;4936873;29;20026;-86
2021/07/15 01:46:40;;;;;;;8.43;3.45;;;;;;;;;;4936954;29;20023;-86
2021/07/15 01:49:07;;;;;;;8.88;3.38;;;;;;;;;;4935794;29;20444;-86
2021/07/15 01:51:34;;;;;;;9.05;3.58;;;;;;;;;;4936433;29;20496;-86
2021/07/15 01:54:03;;;;;;;7.65;3.53;;;;;;;;;;4936811;29;20024;-86
2021/07/15 01:56:30;;;;;;;6.75;3.25;;;;;;;;;;4936777;29;20432;-86
2021/07/15 01:58:57;;;;;;;8.02;3.70;;;;;;;;;;4935372;29;20030;-86
2021/07/15 02:01:23;;;;;;;7.47;3.80;;;;;;;;;;4936959;29;20082;-86
2021/07/15 02:03:50;;;;;;;7.72;3.40;;;;;;;;;;4935334;29;20095;-87
2021/07/15 02:06:18;;;;;;;8.10;4.10;;;;;;;;;;4953892;29;20051;-86
2021/07/15 02:08:45;;;;;;;8.60;4.20;;;;;;;;;;4938707;29;20023;-87
2021/07/15 02:11:18;;;;;;;8.57;4.20;;;;;;;;;;4955821;29;20507;-86
2021/07/15 02:13:45;;;;;;;9.48;4.10;;;;;;;;;;4955807;29;20082;-87
2021/07/15 02:16:11;;;;;;;8.75;4.63;;;;;;;;;;4937804;29;20027;-86
2021/07/15 02:18:39;;;;;;;11.32;4.78;;;;;;;;;;4956480;29;20109;-86
2021/07/15 02:21:05;;;;;;;9.20;5.00;;;;;;;;;;4956191;29;20027;-85
2021/07/15 02:23:32;;;;;;;9.00;4.88;;;;;;;;;;4939362;29;20038;-85
2021/07/15 02:26:06;;;;;;;10.48;4.72;;;;;;;;;;4958007;29;20480;-84
2021/07/15 02:28:33;;;;;;;10.15;5.15;;;;;;;;;;4958170;29;20070;-84
2021/07/15 02:31:09;;;;;;;13.02;6.75;;;;;;;;;;4957807;29;20039;-84
2021/07/15 02:33:39;;;;;;;10.57;6.95;;;;;;;;;;4938463;29;20368;-85
2021/07/15 02:36:06;;;;;;;13.73;9.05;;;;;;;;;;4940236;29;20027;-85
2021/07/15 02:38:33;;;;;;;17.55;9.25;;;;;;;;;;4955401;29;20053;-85
2021/07/15 02:41:00;;;;;;;13.88;8.85;;;;;;;;;;4955321;29;20053;-85
2021/07/15 02:43:26;;;;;;;14.68;8.88;;;;;;;;;;4938200;29;20023;-87
2021/07/15 02:45:52;;;;;;;11.60;7.07;;;;;;;;;;4938211;29;20471;-87
2021/07/15 02:48:21;;;;;;;9.75;5.93;;;;;;;;;;4938170;29;20031;-87
2021/07/15 02:50:47;;;;;;;9.07;5.10;;;;;;;;;;4938500;29;20035;-87
2021/07/15 02:53:17;;;;;;;8.27;4.15;;;;;;;;;;4938508;29;20110;-87
2021/07/15 02:55:46;;;;;;;9.20;4.75;;;;;;;;;;4955463;29;20038;-88
2021/07/15 02:58:14;;;;;;;10.02;4.95;;;;;;;;;;4955530;29;20038;-88
2021/07/15 03:00:54;;;;;;;7.72;4.07;;;;;;;;;;4955357;29;20472;-88
2021/07/15 03:03:21;;;;;;;8.57;4.10;;;;;;;;;;4955463;29;20023;-88
2021/07/15 03:06:02;;;;;;;7.22;3.72;;;;;;;;;;4955282;29;20134;-88
2021/07/15 03:08:32;;;;;;;7.30;3.65;;;;;;;;;;4938221;29;20038;-88
2021/07/15 03:11:03;;;;;;;6.95;3.70;;;;;;;;;;4937858;29;20038;-88
2021/07/15 03:13:30;;;;;;;7.53;3.60;;;;;;;;;;4938040;29;20028;-88
2021/07/15 03:15:56;;;;;;;8.02;3.83;;;;;;;;;;4938277;29;20488;-87
2021/07/15 03:18:23;;;;;;;7.53;3.35;;;;;;;;;;4939068;29;20432;-88
2021/07/15 03:20:52;;;;;;;8.90;3.63;;;;;;;;;;4938323;29;20032;-87
2021/07/15 03:23:19;;;;;;;6.25;3.33;;;;;;;;;;4955309;29;20023;-87
2021/07/15 03:25:49;;;;;;;7.60;3.67;;;;;;;;;;4955526;29;20063;-87
2021/07/15 03:28:16;;;;;;;8.63;4.15;;;;;;;;;;4941252;29;20023;-87
2021/07/15 03:30:45;;;;;;;7.57;3.90;;;;;;;;;;4958819;29;20031;-86
2021/07/15 03:33:11;;;;;;;7.95;4.25;;;;;;;;;;4941510;29;20031;-86
2021/07/15 03:35:40;;;;;;;8.32;4.03;;;;;;;;;;4943949;29;20058;-86
2021/07/15 03:38:06;;;;;;;9.43;4.03;;;;;;;;;;4958766;29;20418;-86
2021/07/15 03:40:32;;;;;;;8.10;4.18;;;;;;;;;;4958617;29;20570;-86
2021/07/15 03:42:59;;;;;;;9.38;4.45;;;;;;;;;;4958446;29;20472;-86
2021/07/15 03:45:26;;;;;;;8.00;4.05;;;;;;;;;;4958933;29;20079;-86
2021/07/15 03:47:53;;;;;;;7.85;4.20;;;;;;;;;;4958867;29;20025;-86
2021/07/15 03:50:25;;;;;;;8.80;4.07;;;;;;;;;;4958687;29;20424;-86
2021/07/15 03:52:54;;;;;;;10.07;3.63;;;;;;;;;;4958759;29;20446;-85
2021/07/15 03:55:24;;;;;;;8.52;3.92;;;;;;;;;;4958856;29;20023;-85
2021/07/15 03:57:51;;;;;;;8.05;3.80;;;;;;;;;;4944110;29;20078;-86
2021/07/15 04:00:22;;;;;;;7.57;3.92;;;;;;;;;;4976815;29;20027;-86
2021/07/15 04:02:52;;;;;;;10.50;4.43;;;;;;;;;;4977761;29;20031;-83
2021/07/15 04:05:21;;;;;;;8.75;4.55;;;;;;;;;;4942569;29;20527;-85
2021/07/15 04:07:53;;;;;;;9.30;5.32;;;;;;;;;;4940145;29;20028;-85
2021/07/15 04:10:19;;;;;;;10.77;5.18;;;;;;;;;;4937709;29;20032;-85
2021/07/15 04:12:47;;;;;;;11.25;5.53;;;;;;;;;;4937649;29;20063;-85
2021/07/15 04:15:18;;;;;;;11.57;5.78;;;;;;;;;;4937589;29;20028;-85
2021/07/15 04:17:56;;;;;;;9.98;5.80;;;;;;;;;;4938611;29;20035;-85
2021/07/15 04:20:24;;;;;;;8.75;4.65;;;;;;;;;;4938546;29;20042;-85
2021/07/15 04:22:52;;;;;;;9.23;4.60;;;;;;;;;;4938815;29;20031;-85
2021/07/15 04:25:20;;;;;;;8.82;4.70;;;;;;;;;;4939126;29;20055;-85
2021/07/15 04:27:48;;;;;;;8.05;4.40;;;;;;;;;;4938471;29;20034;-85
2021/07/15 04:30:15;;;;;;;9.27;4.38;;;;;;;;;;4939775;29;20110;-86
2021/07/15 04:32:43;;;;;;;7.22;3.85;;;;;;;;;;4938206;29;20035;-87
2021/07/15 04:35:16;;;;;;;7.35;3.60;;;;;;;;;;4942041;29;20123;-87
2021/07/15 04:37:44;;;;;;;9.77;4.50;;;;;;;;;;4957098;28;20471;-84
2021/07/15 04:40:13;;;;;;;10.18;5.32;;;;;;;;;;4957201;29;20027;-85
2021/07/15 04:42:40;;;;;;;7.95;2.88;;;;;;;;;;4957531;29;20035;-85
2021/07/15 04:45:07;;;;;;;4.85;2.53;;;;;;;;;;4957362;29;20063;-84
2021/07/15 04:47:34;;;;;;;5.20;2.45;;;;;;;;;;4957496;29;20031;-84
2021/07/15 04:50:00;;;;;;;5.50;2.40;;;;;;;;;;4957710;29;20475;-84
2021/07/15 04:52:28;;;;;;;4.75;2.30;;;;;;;;;;4956474;29;20045;-85
2021/07/15 04:54:55;;;;;;;5.38;2.63;;;;;;;;;;4957192;29;20110;-85
2021/07/15 04:57:21;;;;;;;4.22;2.33;;;;;;;;;;4956128;29;20542;-85
2021/07/15 04:59:47;;;;;;;4.72;2.38;;;;;;;;;;4957335;29;20475;-84
2021/07/15 05:02:14;;;;;;;4.32;2.35;;;;;;;;;;4957317;29;20059;-85
2021/07/15 05:04:40;;;;;;;4.70;2.20;;;;;;;;;;4955816;29;20046;-84
2021/07/15 05:07:06;;;;;;;4.10;2.25;;;;;;;;;;4957075;29;20102;-85
2021/07/15 05:09:32;;;;;;;4.78;2.30;;;;;;;;;;4957183;29;20023;-84
2021/07/15 05:11:59;;;;;;;3.97;2.30;;;;;;;;;;4956863;29;20042;-85
2021/07/15 05:14:25;;;;;;;4.35;2.08;;;;;;;;;;4956765;29;20465;-84
2021/07/15 05:16:51;;;;;;;3.47;2.00;;;;;;;;;;4956778;29;20035;-84
2021/07/15 05:19:17;;;;;;;5.10;2.10;;;;;;;;;;4956641;29;20028;-86
2021/07/15 05:21:43;;;;;;;2.95;1.92;;;;;;;;;;4957510;29;20031;-84
2021/07/15 05:24:09;;;;;;;3.72;1.90;;;;;;;;;;4972638;29;20014;-84
2021/07/15 05:26:35;;;;;;;2.03;1.63;;;;;;;;;;4967091;29;20051;-83
2021/07/15 05:29:01;;;;;;;3.88;1.75;;;;;;;;;;4962725;29;20027;-85
2021/07/15 05:31:28;;;;;;;2.00;1.60;;;;;;;;;;4957032;29;20053;-85
2021/07/15 05:33:54;;;;;;;2.22;1.50;;;;;;;;;;4958675;29;20030;-84
2021/07/15 05:36:20;;;;;;;3.35;1.75;;;;;;;;;;4955418;29;20407;-83
2021/07/15 05:38:46;;;;;;;3.20;1.73;;;;;;;;;;4955585;29;20554;-82
2021/07/15 05:41:12;;;;;;;4.70;1.90;;;;;;;;;;4956661;29;20112;-85
2021/07/15 05:43:39;;;;;;;3.20;1.60;;;;;;;;;;4962525;29;20569;-84
2021/07/15 05:46:05;;;;;;;2.90;1.65;;;;;;;;;;4973996;28;20046;-84
2021/07/15 05:48:31;;;;;;;2.70;1.58;;;;;;;;;;4957472;29;20050;-85
2021/07/15 05:50:57;;;;;;;2.95;1.63;;;;;;;;;;4955856;28;20029;-84
2021/07/15 05:53:24;;;;;;;1.63;1.20;;;;;;;;;;4955744;29;20117;-85
2021/07/15 05:59:27;;;;;;;3.70;1.50;;;;;;;;;;4958717;29;20026;-86
2021/07/15 06:01:57;;;;;;;1.50;1.27;;;;;;;;;;4960743;29;20023;-87
2021/07/15 06:04:23;;;;;;;4.93;1.35;;;;;;;;;;4961419;28;20055;-81
2021/07/15 06:06:50;;;;;;;2.05;1.10;;;;;;;;;;4977195;28;20058;-82
2021/07/15 06:09:16;;;;;;;2.67;1.20;;;;;;;;;;4976355;28;20034;-81
2021/07/15 06:11:42;;;;;;;2.17;1.20;;;;;;;;;;4975340;28;20035;-81
2021/07/15 06:14:08;;;;;;;1.00;1.00;;;;;;;;;;4975310;28;20032;-81
2021/07/15 06:16:34;;;;;;;3.05;1.23;;;;;;;;;;4974850;28;20494;-81
2021/07/15 06:19:00;;;;;;;2.72;1.23;;;;;;;;;;4975924;28;20117;-80
2021/07/15 06:21:26;;;;;;;2.17;1.05;;;;;;;;;;4975826;28;20391;-80
2021/07/15 06:23:52;;;;;;;1.05;0.82;;;;;;;;;;4975121;28;20382;-80
2021/07/15 06:26:18;;;;;;;0.95;0.75;;;;;;;;;;4975009;28;20430;-80
2021/07/15 06:28:44;;;;;;;1.60;0.77;;;;;;;;;;4975042;28;20031;-80
2021/07/15 06:31:10;;;;;;;2.25;1.08;;;;;;;;;;4974974;28;20031;-80
2021/07/15 06:33:37;;;;;;;1.27;1.00;;;;;;;;;;4974878;28;20085;-78
2021/07/15 06:36:04;;;;;;;2.08;1.00;;;;;;;;;;4963324;28;20023;-80
2021/07/15 06:38:40;;;;;;;1.20;1.02;;;;;;;;;;4938674;29;20498;-86
2021/07/15 06:41:20;;;;;;;1.00;1.00;;;;;;;;;;4939171;29;20054;-85
2021/07/15 06:44:17;;;;;;;6.63;1.38;;;;;;;;;;4941526;29;20023;-86
2021/07/15 06:46:46;;;;;;;0.88;0.88;;;;;;;;;;4956492;29;20443;-86
2021/07/15 06:49:25;;;;;;;2.33;1.10;;;;;;;;;;4957625;29;20038;-87
2021/07/15 06:51:54;;;;;;;0.82;0.80;;;;;;;;;;4952622;29;20075;-86
2021/07/15 06:54:24;;;;;;;0.75;0.75;;;;;;;;;;4942626;29;20054;-85
2021/07/15 06:56:55;;;;;;;0.80;0.80;;;;;;;;;;4940303;29;20391;-84
2021/07/15 06:59:50;;;;;;;0.77;0.77;;;;;;;;;;4957437;29;20027;-85
2021/07/15 07:02:45;;;;;;;;;;;;;;;;;;;;;
2021/07/15 07:05:12;;;;;;;0.95;0.77;;;;;;;;;;4960884;29;20054;-86
2021/07/15 07:07:38;;;;;;;2.00;0.90;;;;;;;;;;4962857;29;20023;-84
2021/07/15 07:13:18;;;;;;;1.33;0.90;;;;;;;;;;4962606;29;20118;-87
2021/07/15 07:15:54;;;;;;;1.10;0.82;;;;;;;;;;4946828;29;20032;-89
2021/07/15 07:19:05;;;;;;;1.35;0.77;;;;;;;;;;4946008;29;20027;-87
2021/07/15 07:21:43;;;;;;;0.80;0.80;;;;;;;;;;4944638;29;20086;-84
2021/07/15 07:24:49;;;;;;;;;;;;;;;;;;;;;
2021/07/15 07:31:00;;;;;;;;;;;;;;;;;;;;;
2021/07/15 07:33:45;;;;;;;0.88;0.85;;;;;;;;;;4900816;29;20049;-87
2021/07/15 07:40:05;;;;;;;2.55;1.05;;;;;;;;;;4874331;29;20025;-87
2021/07/15 07:45:51;;;;;;;0.82;0.80;;;;;;;;;;4900034;29;20032;-86
2021/07/15 07:48:20;;;;;;;0.80;0.73;;;;;;;;;;4897276;29;20035;-89
2021/07/15 07:50:46;;;;;;;0.40;0.40;;;;;;;;;;4946008;28;20047;-88
2021/07/15 07:53:17;;;;;;;2.97;0.80;;;;;;;;;;4960882;28;20110;-87
2021/07/15 08:01:47;;;;;;;0.85;0.40;;;;;;;;;;4956459;29;19913;-86
2021/07/15 08:04:21;;;;;;;0.77;0.70;;;;;;;;;;4921782;29;20039;-85
2021/07/15 10:42:23;;;;;;;2.10;1.10;;;;;;;;;;5928082;23;20014;-88
2021/07/15 11:46:50;;;;;;;0.55;0.50;;;;;;;;;;5822144;23;20386;-86
2021/07/15 11:49:27;;;;;;;1.52;0.55;;;;;;;;;;4921460;29;20099;-86
2021/07/15 11:51:55;;;;;;;1.90;0.90;;;;;;;;;;4923319;29;20040;-85
2021/07/15 11:57:33;;;;;;;0.50;0.50;;;;;;;;;;4940303;29;20034;-85
2021/07/15 12:00:26;;;;;;;0.70;0.70;;;;;;;;;;4921080;29;20126;-85
2021/07/15 12:02:57;;;;;;;0.45;0.45;;;;;;;;;;4923390;29;20027;-85
2021/07/15 12:05:38;;;;;;;0.50;0.50;;;;;;;;;;4922812;29;20484;-85
2021/07/15 13:05:42;;;;;;;1.55;0.98;;;;;;;;;;4958787;29;20050;-87
2021/07/15 13:08:16;;;;;;;2.25;1.10;;;31.80;99.90;;;;;;4956766;29;20023;-84
2021/07/15 13:20:59;;;;;;;1.10;1.10;;;38.50;98.50;;;;;;4986892;23;20506;-86
2021/07/15 13:23:27;;;;;;;1.27;1.23;;;40.30;98.50;;;;;;4964749;29;20047;-88
2021/07/15 13:25:53;;;;;;;4.72;0.93;;;40.90;95.50;;;;;;4944463;29;20035;-89
2021/07/15 13:28:21;;;;;;;0.47;0.47;;;41.40;92.70;;;;;;4942832;29;20026;-91
2021/07/15 13:30:47;;;;;;;0.50;0.50;;;41.30;91.40;;;;;;4945885;29;20082;-88
2021/07/15 13:33:21;;;;;;;2.42;0.80;;;40.70;90.60;;;;;;4943675;29;20122;-91
2021/07/15 13:35:49;;;;;;;2.67;1.08;;;41.40;94.70;;;;;;4948762;29;20387;-90
2021/07/15 13:38:16;;;;;;;1.17;0.70;;;42.00;91.70;;;;;;4946097;29;20099;-88
2021/07/15 13:40:44;;;;;;;1.52;0.60;;;41.40;86.30;;;;;;4946002;29;20427;-88
2021/07/15 13:43:24;;;;;;;0.63;0.63;;;40.20;83.50;;;;;;4940633;29;20027;-86
2021/07/15 13:45:53;;;;;;;0.40;0.40;;;38.70;83.00;;;;;;4958533;29;20031;-84
2021/07/15 13:48:23;;;;;;;0.60;0.50;;;37.20;81.20;;;;;;4959672;29;20055;-88
2021/07/15 13:50:51;;;;;;;1.40;0.40;;;35.90;83.80;;;;;;4958418;29;20108;-88
2021/07/15 13:53:19;;;;;;;0.60;0.60;;;34.60;82.90;;;;;;4939929;29;20090;-87
2021/07/15 13:55:48;;;;;;;0.65;0.40;;;33.40;84.80;;;;;;4956180;29;20031;-85
2021/07/15 13:58:16;;;;;;;0.98;0.73;;;32.50;87.90;;;;;;4939776;29;20074;-86
2021/07/15 14:00:51;;;;;;;0.70;0.65;;;31.90;89.40;;;;;;4929551;29;20432;-86
2021/07/15 14:03:23;;;;;;;1.63;0.80;;;31.40;89.80;;;;;;4920195;29;20038;-87
2021/07/15 14:05:53;;;;;;;2.38;0.70;;;30.80;88.20;;;;;;4940811;29;20028;-87
2021/07/15 14:08:20;;;;;;;0.90;0.65;;;30.20;89.60;;;;;;4930202;29;20031;-88
2021/07/15 14:10:48;;;;;;;1.55;0.85;;;29.70;90.40;;;;;;4939791;29;20059;-88
2021/07/15 14:13:14;;;;;;;2.42;1.02;;;29.40;90.40;;;;;;4957021;29;20066;-87
2021/07/15 14:15:44;;;;;;;1.38;0.88;;;29.00;90.50;;;;;;4939332;29;20391;-87
2021/07/15 14:18:23;;;;;;;1.83;0.90;;;28.70;91.00;;;;;;4959010;29;20031;-88
2021/07/15 14:20:51;;;;;;;0.90;0.80;;;28.40;91.00;;;;;;4957175;29;20043;-88
2021/07/15 14:23:21;;;;;;;1.63;1.00;;;28.10;91.10;;;;;;4939150;29;20506;-87
2021/07/15 14:25:48;;;;;;;2.90;0.85;;;28.00;91.60;;;;;;4939283;29;20510;-87
2021/07/15 14:28:14;;;;;;;3.30;1.13;;;27.80;91.80;;;;;;4956169;29;20040;-87
2021/07/15 14:30:40;;;;;;;0.85;0.85;;;27.70;92.10;;;;;;4956177;29;20032;-88
2021/07/15 14:33:08;;;;;;;0.55;0.55;;;27.50;91.70;;;;;;4956145;29;20042;-88
2021/07/15 14:35:52;;;;;;;1.67;1.00;;;27.30;91.90;;;;;;4937220;29;20482;-88
2021/07/15 14:38:18;;;;;;;0.95;0.77;;;27.20;92.10;;;;;;4939362;29;20428;-88
2021/07/15 14:40:46;;;;;;;1.45;1.10;;;27.00;92.80;;;;;;4957130;29;20190;-88
2021/07/15 14:43:14;;;;;;;2.67;0.85;;;27.00;92.80;;;;;;4940216;29;20031;-86
2021/07/15 14:45:40;;;;;;;1.88;0.80;;;27.00;93.20;;;;;;4955817;29;20403;-88
2021/07/15 14:48:08;;;;;;;3.15;1.00;;;27.10;93.40;;;;;;4954384;29;20032;-86
2021/07/15 14:50:36;;;;;;;1.60;0.90;;;27.20;93.40;;;;;;4954518;29;20403;-86
2021/07/15 14:53:03;;;;;;;1.55;0.98;;;27.40;94.70;;;;;;4955775;29;20372;-86
2021/07/15 14:55:29;;;;;;;0.82;0.80;;;27.70;94.30;;;;;;4955487;28;20026;-86
2021/07/15 14:57:57;;;;;;;0.88;0.80;;;27.80;93.40;;;;;;4955748;28;20035;-86
2021/07/15 15:00:31;;;;;;;1.48;0.68;;;27.70;92.90;;;;;;4970852;28;20023;-86
2021/07/15 15:03:00;;;;;;;1.47;0.83;;;27.50;92.50;;;;;;4956350;29;20027;-86
2021/07/15 15:05:26;;;;;;;1.17;0.60;;;27.20;92.50;;;;;;4961610;29;20035;-86
2021/07/15 15:07:53;;;;;;;2.03;0.77;;;27.10;92.70;;;;;;4973100;29;20031;-86
2021/07/15 15:10:19;;;;;;;1.13;0.70;;;26.90;92.40;;;;;;4966436;28;20029;-88
2021/07/15 15:12:47;;;;;;;1.75;0.73;;;26.70;92.70;;;;;;4960062;28;20085;-88
2021/07/15 15:15:13;;;;;;;1.08;0.60;;;26.50;92.60;;;;;;4954905;29;20027;-87
2021/07/15 15:17:38;;;;;;;4.03;0.63;;;26.30;92.40;;;;;;4957454;28;20031;-87
2021/07/15 15:20:11;;;;;;;1.85;0.70;;;26.00;92.30;;;;;;4954477;29;20047;-88
2021/07/15 15:22:37;;;;;;;2.03;0.80;;;25.80;92.60;;;;;;4955238;28;20415;-87
2021/07/15 15:25:03;;;;;;;0.70;0.70;;;25.70;93.00;;;;;;4957987;29;20043;-86
2021/07/15 15:27:31;;;;;;;1.17;0.90;;;25.70;93.50;;;;;;4959503;29;20031;-86
2021/07/15 15:29:57;;;;;;;1.80;1.00;;;25.70;93.40;;;;;;4959461;29;20027;-86
2021/07/15 15:32:23;;;;;;;2.58;1.17;;;25.70;93.70;;;;;;4958890;29;20066;-88
2021/07/15 15:34:52;;;;;;;2.10;0.82;;;25.70;94.00;;;;;;4956897;29;20016;-86
2021/07/15 15:37:17;;;;;;;1.10;1.00;;;25.90;94.60;;;;;;4939149;29;20047;-87
2021/07/15 15:39:46;;;;;;;3.38;1.33;;;26.40;96.40;;;;;;4922517;29;20476;-87
2021/07/15 15:42:12;;;;;;;1.75;1.20;;;27.40;99.90;;;;;;4922147;29;20032;-87
2021/07/15 15:44:38;;;;;;;1.17;1.00;;;29.40;99.90;;;;;;4922524;29;20031;-87
2021/07/15 15:47:10;;;;;;;1.27;1.10;;;30.30;97.20;;;;;;4922143;29;20514;-87
2021/07/15 15:49:40;;;;;;;1.85;1.60;;;30.60;96.40;;;;;;4938964;29;20447;-88
2021/07/15 15:52:11;;;;;;;1.23;1.13;;;33.10;99.90;;;;;;4939124;29;20035;-88
2021/07/15 15:54:38;;;;;;;0.70;0.70;;;36.70;99.90;;;;;;4939070;29;20047;-88
2021/07/15 15:57:05;;;;;;;1.23;1.13;;;38.80;99.90;;;;;;4939255;29;20528;-88
2021/07/15 15:59:31;;;;;;;1.58;1.02;;;40.60;99.90;;;;;;4921946;29;20103;-88
2021/07/15 16:01:56;;;;;;;0.70;0.70;;;42.40;98.30;;;;;;4939341;29;20039;-88
2021/07/15 16:04:50;;;;;;;0.60;0.60;;;43.70;92.60;;;;;;4939341;29;20106;-88
2021/07/15 16:07:17;;;;;;;;;;;42.90;79.80;;;;;;4919663;29;20051;-88
2021/07/15 16:09:42;;;;;;;0.40;0.40;;;41.00;78.60;;;;;;4921817;29;19913;-87
2021/07/15 16:12:14;;;;;;;0.73;0.50;;;39.10;76.40;;;;;;4955817;29;20391;-86
2021/07/15 16:14:50;;;;;;;0.60;0.60;;;37.50;79.30;;;;;;4940800;29;20058;-85
2021/07/15 16:17:58;;;;;;;0.50;0.50;;;36.30;82.70;;;;;;4940503;29;20041;-88
2021/07/15 18:20:40;;;;;;;;;;;;;;;;;;;;;
2021/07/15 19:12:27;;;;;;;4.95;2.00;;;21.30;94.10;;;;;;5269819;23;20055;-88
2021/07/15 19:16:17;;;;;;;;;;;;;;;;;;;;;
2021/07/15 19:19:48;;;;;;;4.70;2.30;;;21.10;94.10;;;;;;4878740;29;20418;-89
2021/07/15 19:21:46;;;;;;;5.32;2.50;;;20.90;94.00;;;;;;4875968;29;20041;-89
2021/07/15 19:24:42;;;;;;;3.33;2.08;;;20.80;93.80;;;;;;4865127;29;20409;-88
2021/07/15 20:05:01;;;;;;;7.43;2.80;;;19.90;95.30;;;;;;4820083;23;20463;-86
2021/07/15 20:07:34;;;;;;;8.45;2.78;;;19.90;95.20;;;;;;4960261;29;20431;-85
2021/07/15 20:10:00;;;;;;;5.35;2.30;;;19.90;94.90;;;;;;4945972;29;20027;-85
2021/07/15 20:12:31;;;;;;;5.40;2.53;;;19.80;95.00;;;;;;4948350;29;20400;-86
2021/07/15 20:15:01;;;;;;;6.95;2.58;;;19.70;95.00;;;;;;4931556;29;20027;-85
2021/07/15 20:17:37;;;;;;;5.85;2.60;;;19.70;95.10;;;;;;4946889;29;20031;-85
2021/07/15 20:20:09;;;;;;;9.38;2.50;;;19.60;95.10;;;;;;4964201;29;20027;-86
2021/07/15 20:22:50;;;;;;;5.13;2.30;;;19.60;95.10;;;;;;4966290;29;20059;-87
2021/07/15 20:29:14;;;;;;;;;;;;;;;;;;;;;
2021/07/15 20:35:43;;;;;;;;;;;;;;;;;;;;;
2021/07/15 20:42:42;;;;;;;;;;;;;;;;;;;;;
2021/07/15 20:45:50;;;;;;;;;;;;;;;;;;;;;
2021/07/15 20:48:47;;;;;;;5.70;2.50;;;19.40;95.50;;;;;;4905984;29;20107;-87
2021/07/15 20:51:26;;;;;;;11.10;2.70;;;19.40;95.60;;;;;;4895034;29;20041;-88
2021/07/15 20:54:11;;;;;;;5.47;2.47;;;19.30;95.50;;;;;;4874428;29;20123;-87
2021/07/15 20:57:13;;;;;;;8.00;2.70;;;19.40;95.60;;;;;;4875702;29;20041;-87
2021/07/15 21:00:05;;;;;;;4.25;2.50;;;19.30;95.50;;;;;;4953212;29;20455;-88
2021/07/15 21:02:52;;;;;;;6.80;3.00;;;19.30;95.70;;;;;;4947572;29;20399;-87
2021/07/15 21:16:15;;;;;;;5.75;2.67;;;19.20;95.90;;;;;;4860919;29;20076;-88
2021/07/15 21:19:13;;;;;;;;;;;;;;;;;;;;;
2021/07/15 21:21:39;;;;;;;7.50;2.70;;;19.20;96.00;;;;;;4933000;29;20491;-86
2021/07/15 21:24:07;;;;;;;5.97;2.72;;;19.30;96.10;;;;;;4919651;29;20118;-88
2021/07/15 21:26:36;;;;;;;8.30;3.17;;;19.30;96.10;;;;;;4919475;29;20115;-88
2021/07/15 21:32:35;;;;;;;5.13;2.75;;;19.20;95.90;;;;;;4898888;29;20037;-88
2021/07/15 21:38:07;;;;;;;7.38;2.70;;;19.20;95.90;;;;;;4921332;29;20044;-88
2021/07/15 21:40:45;;;;;;;6.63;2.83;;;19.20;95.90;;;;;;4919672;29;20441;-86
2021/07/15 21:43:15;;;;;;;5.90;2.55;;;19.20;96.00;;;;;;4919081;29;20024;-86
2021/07/15 21:45:46;;;;;;;5.25;2.55;;;19.20;96.10;;;;;;4919345;29;20028;-87
2021/07/15 21:48:12;;;;;;;6.35;2.95;;;19.30;96.20;;;;;;4921169;29;20048;-87
2021/07/15 21:51:25;;;;;;;6.22;2.50;;;19.20;96.20;;;;;;4935284;29;20041;-88
2021/07/15 22:05:22;;;;;;;9.13;2.50;;;19.20;96.10;;;;;;4887051;29;20040;-87
2021/07/15 22:11:31;;;;;;;5.65;2.92;;;19.10;96.10;;;;;;4900504;29;20044;-87
2021/07/15 22:14:55;;;;;;;5.72;2.50;;;19.10;96.10;;;;;;4854129;29;20100;-87
2021/07/15 22:18:00;;;;;;;6.80;2.80;;;19.10;96.10;;;;;;4925106;29;20125;-86
2021/07/15 22:21:12;;;;;;;8.20;2.50;;;19.00;95.90;;;;;;4935442;29;20032;-86
2021/07/15 22:23:58;;;;;;;;;;;;;;;;;;;;;
2021/07/15 22:26:57;;;;;;;;;;;;;;;;;;;;;
2021/07/15 22:30:06;;;;;;;5.13;2.60;;;18.90;96.10;;;;;;4936742;29;20034;-87
2021/07/15 22:33:26;;;;;;;8.90;3.33;;;18.80;96.10;;;;;;4934606;29;20130;-86
2021/07/15 22:36:14;;;;;;;8.93;3.85;;;18.70;96.00;;;;;;4942815;29;20028;-87
2021/07/15 22:57:30;;;;;;;;;;;;;;;;;;;;;
2021/07/15 23:01:10;;;;;;;;;;;;;;;;;;;;;
2021/07/15 23:07:59;;;;;;;;;;;;;;;;;;;;;
2021/07/15 23:11:11;;;;;;;9.68;4.25;;;17.90;95.90;;;;;;4804800;29;20488;-86
2021/07/15 23:14:10;;;;;;;12.40;4.93;;;17.80;96.00;;;;;;4803941;29;20130;-86
